sensor_id;sensor_type;location;lat;lon;timestamp;P1;durP1;ratioP1;P2;durP2;ratioP2
71696;SDS011;59528;59.082;37.926;2022-08-21T00:00:54;12.50;;;5.47;;
71696;SDS011;59528;59.082;37.926;2022-08-21T00:03:20;8.07;;;5.33;;
71696;SDS011;59528;59.082;37.926;2022-08-21T00:05:46;11.23;;;5.77;;
71696;SDS011;59528;59.082;37.926;2022-08-21T00:08:14;9.57;;;5.30;;
71696;SDS011;59528;59.082;37.926;2022-08-21T00:10:41;11.67;;;5.47;;
71696;SDS011;59528;59.082;37.926;2022-08-21T00:13:07;7.53;;;5.63;;
71696;SDS011;59528;59.082;37.926;2022-08-21T00:15:33;7.53;;;5.83;;
71696;SDS011;59528;59.082;37.926;2022-08-21T00:17:59;10.93;;;5.80;;
71696;SDS011;59528;59.082;37.926;2022-08-21T00:20:28;10.10;;;5.97;;
71696;SDS011;59528;59.082;37.926;2022-08-21T00:22:53;8.23;;;5.50;;
71696;SDS011;59528;59.082;37.926;2022-08-21T00:25:19;12.37;;;6.53;;
71696;SDS011;59528;59.082;37.926;2022-08-21T00:27:45;8.13;;;5.67;;
71696;SDS011;59528;59.082;37.926;2022-08-21T00:30:21;10.77;;;6.07;;
71696;SDS011;59528;59.082;37.926;2022-08-21T00:32:46;9.47;;;5.57;;
71696;SDS011;59528;59.082;37.926;2022-08-21T00:35:14;11.50;;;6.30;;
71696;SDS011;59528;59.082;37.926;2022-08-21T00:37:40;10.33;;;6.50;;
71696;SDS011;59528;59.082;37.926;2022-08-21T00:40:07;8.67;;;5.90;;
71696;SDS011;59528;59.082;37.926;2022-08-21T00:42:33;13.23;;;6.13;;
71696;SDS011;59528;59.082;37.926;2022-08-21T00:44:59;14.67;;;6.57;;
71696;SDS011;59528;59.082;37.926;2022-08-21T00:47:25;10.17;;;6.13;;
71696;SDS011;59528;59.082;37.926;2022-08-21T00:49:50;10.13;;;6.20;;
71696;SDS011;59528;59.082;37.926;2022-08-21T00:52:20;12.73;;;6.03;;
71696;SDS011;59528;59.082;37.926;2022-08-21T00:54:47;8.07;;;5.87;;
71696;SDS011;59528;59.082;37.926;2022-08-21T00:57:17;12.30;;;6.53;;
71696;SDS011;59528;59.082;37.926;2022-08-21T00:59:45;11.47;;;6.00;;
71696;SDS011;59528;59.082;37.926;2022-08-21T01:02:11;11.90;;;6.60;;
71696;SDS011;59528;59.082;37.926;2022-08-21T01:04:37;9.87;;;6.40;;
71696;SDS011;59528;59.082;37.926;2022-08-21T01:07:03;9.97;;;6.47;;
71696;SDS011;59528;59.082;37.926;2022-08-21T01:09:29;12.53;;;7.20;;
71696;SDS011;59528;59.082;37.926;2022-08-21T01:11:55;10.67;;;6.80;;
71696;SDS011;59528;59.082;37.926;2022-08-21T01:14:20;8.73;;;6.37;;
71696;SDS011;59528;59.082;37.926;2022-08-21T01:16:47;12.67;;;7.00;;
71696;SDS011;59528;59.082;37.926;2022-08-21T01:19:13;11.93;;;6.70;;
71696;SDS011;59528;59.082;37.926;2022-08-21T01:21:40;13.70;;;7.27;;
71696;SDS011;59528;59.082;37.926;2022-08-21T01:24:06;11.07;;;6.97;;
71696;SDS011;59528;59.082;37.926;2022-08-21T01:26:32;10.10;;;7.03;;
71696;SDS011;59528;59.082;37.926;2022-08-21T01:29:01;10.60;;;7.20;;
71696;SDS011;59528;59.082;37.926;2022-08-21T01:31:27;9.87;;;7.40;;
71696;SDS011;59528;59.082;37.926;2022-08-21T01:33:54;12.17;;;7.13;;
71696;SDS011;59528;59.082;37.926;2022-08-21T01:36:20;10.47;;;7.17;;
71696;SDS011;59528;59.082;37.926;2022-08-21T01:38:47;10.10;;;6.97;;
71696;SDS011;59528;59.082;37.926;2022-08-21T01:41:13;10.57;;;7.20;;
71696;SDS011;59528;59.082;37.926;2022-08-21T01:43:42;11.63;;;7.30;;
71696;SDS011;59528;59.082;37.926;2022-08-21T01:46:08;10.17;;;7.80;;
71696;SDS011;59528;59.082;37.926;2022-08-21T01:48:34;11.97;;;7.40;;
71696;SDS011;59528;59.082;37.926;2022-08-21T01:50:59;8.60;;;7.17;;
71696;SDS011;59528;59.082;37.926;2022-08-21T01:53:25;12.67;;;7.43;;
71696;SDS011;59528;59.082;37.926;2022-08-21T01:55:51;11.47;;;7.40;;
71696;SDS011;59528;59.082;37.926;2022-08-21T01:58:16;12.43;;;7.30;;
71696;SDS011;59528;59.082;37.926;2022-08-21T02:00:42;13.10;;;7.20;;
71696;SDS011;59528;59.082;37.926;2022-08-21T02:03:08;16.23;;;7.57;;
71696;SDS011;59528;59.082;37.926;2022-08-21T02:05:34;19.00;;;8.67;;
71696;SDS011;59528;59.082;37.926;2022-08-21T02:07:59;13.33;;;7.60;;
71696;SDS011;59528;59.082;37.926;2022-08-21T02:10:26;12.57;;;8.60;;
71696;SDS011;59528;59.082;37.926;2022-08-21T02:12:52;13.47;;;7.97;;
71696;SDS011;59528;59.082;37.926;2022-08-21T02:15:18;15.77;;;8.20;;
71696;SDS011;59528;59.082;37.926;2022-08-21T02:17:49;13.20;;;7.93;;
71696;SDS011;59528;59.082;37.926;2022-08-21T02:20:20;12.87;;;8.37;;
71696;SDS011;59528;59.082;37.926;2022-08-21T02:22:46;13.10;;;8.40;;
71696;SDS011;59528;59.082;37.926;2022-08-21T02:25:12;11.70;;;8.30;;
71696;SDS011;59528;59.082;37.926;2022-08-21T02:27:40;13.63;;;8.97;;
71696;SDS011;59528;59.082;37.926;2022-08-21T02:30:08;12.23;;;8.63;;
71696;SDS011;59528;59.082;37.926;2022-08-21T02:32:34;13.17;;;9.27;;
71696;SDS011;59528;59.082;37.926;2022-08-21T02:35:00;17.73;;;9.10;;
71696;SDS011;59528;59.082;37.926;2022-08-21T02:37:26;14.20;;;9.40;;
71696;SDS011;59528;59.082;37.926;2022-08-21T02:39:52;15.37;;;9.17;;
71696;SDS011;59528;59.082;37.926;2022-08-21T02:42:17;15.27;;;9.07;;
71696;SDS011;59528;59.082;37.926;2022-08-21T02:44:43;13.53;;;9.50;;
71696;SDS011;59528;59.082;37.926;2022-08-21T02:47:08;12.23;;;9.10;;
71696;SDS011;59528;59.082;37.926;2022-08-21T02:49:34;12.30;;;9.53;;
71696;SDS011;59528;59.082;37.926;2022-08-21T02:51:59;15.90;;;10.03;;
71696;SDS011;59528;59.082;37.926;2022-08-21T02:54:25;16.73;;;9.67;;
71696;SDS011;59528;59.082;37.926;2022-08-21T02:56:50;15.03;;;10.20;;
71696;SDS011;59528;59.082;37.926;2022-08-21T02:59:16;16.97;;;10.90;;
71696;SDS011;59528;59.082;37.926;2022-08-21T03:01:42;17.83;;;10.10;;
71696;SDS011;59528;59.082;37.926;2022-08-21T03:04:07;14.23;;;10.33;;
71696;SDS011;59528;59.082;37.926;2022-08-21T03:06:33;20.43;;;10.73;;
71696;SDS011;59528;59.082;37.926;2022-08-21T03:08:59;16.53;;;10.50;;
71696;SDS011;59528;59.082;37.926;2022-08-21T03:11:25;18.67;;;10.60;;
71696;SDS011;59528;59.082;37.926;2022-08-21T03:13:52;20.60;;;12.17;;
71696;SDS011;59528;59.082;37.926;2022-08-21T03:16:17;25.87;;;17.60;;
71696;SDS011;59528;59.082;37.926;2022-08-21T03:18:44;19.33;;;14.43;;
71696;SDS011;59528;59.082;37.926;2022-08-21T03:21:10;18.03;;;12.77;;
71696;SDS011;59528;59.082;37.926;2022-08-21T03:23:36;20.20;;;14.03;;
71696;SDS011;59528;59.082;37.926;2022-08-21T03:26:01;19.77;;;13.17;;
71696;SDS011;59528;59.082;37.926;2022-08-21T03:28:27;21.73;;;12.87;;
71696;SDS011;59528;59.082;37.926;2022-08-21T03:30:53;19.43;;;12.87;;
71696;SDS011;59528;59.082;37.926;2022-08-21T03:33:19;17.70;;;12.77;;
71696;SDS011;59528;59.082;37.926;2022-08-21T03:35:45;17.40;;;12.27;;
71696;SDS011;59528;59.082;37.926;2022-08-21T03:38:12;21.83;;;12.73;;
71696;SDS011;59528;59.082;37.926;2022-08-21T03:40:38;16.13;;;11.77;;
71696;SDS011;59528;59.082;37.926;2022-08-21T03:43:06;18.50;;;12.57;;
71696;SDS011;59528;59.082;37.926;2022-08-21T03:45:34;17.93;;;12.47;;
71696;SDS011;59528;59.082;37.926;2022-08-21T03:48:01;15.97;;;11.60;;
71696;SDS011;59528;59.082;37.926;2022-08-21T03:50:31;19.77;;;12.77;;
71696;SDS011;59528;59.082;37.926;2022-08-21T03:52:57;22.30;;;12.23;;
71696;SDS011;59528;59.082;37.926;2022-08-21T03:55:24;18.20;;;11.77;;
71696;SDS011;59528;59.082;37.926;2022-08-21T03:57:50;18.90;;;12.80;;
71696;SDS011;59528;59.082;37.926;2022-08-21T04:00:16;17.47;;;12.37;;
71696;SDS011;59528;59.082;37.926;2022-08-21T04:02:42;20.57;;;13.03;;
71696;SDS011;59528;59.082;37.926;2022-08-21T04:05:09;17.30;;;12.50;;
71696;SDS011;59528;59.082;37.926;2022-08-21T04:07:34;19.90;;;13.00;;
71696;SDS011;59528;59.082;37.926;2022-08-21T04:10:01;20.50;;;12.80;;
71696;SDS011;59528;59.082;37.926;2022-08-21T04:12:27;20.40;;;12.73;;
71696;SDS011;59528;59.082;37.926;2022-08-21T04:14:53;16.80;;;12.37;;
71696;SDS011;59528;59.082;37.926;2022-08-21T04:17:18;22.57;;;15.77;;
71696;SDS011;59528;59.082;37.926;2022-08-21T04:19:44;25.20;;;17.10;;
71696;SDS011;59528;59.082;37.926;2022-08-21T04:22:09;23.00;;;15.77;;
71696;SDS011;59528;59.082;37.926;2022-08-21T04:24:35;22.17;;;15.23;;
71696;SDS011;59528;59.082;37.926;2022-08-21T04:27:01;23.80;;;16.57;;
71696;SDS011;59528;59.082;37.926;2022-08-21T04:29:26;20.33;;;14.47;;
71696;SDS011;59528;59.082;37.926;2022-08-21T04:31:52;22.83;;;14.07;;
71696;SDS011;59528;59.082;37.926;2022-08-21T04:34:18;18.90;;;14.33;;
71696;SDS011;59528;59.082;37.926;2022-08-21T04:36:44;24.87;;;14.27;;
71696;SDS011;59528;59.082;37.926;2022-08-21T04:39:09;19.47;;;12.70;;
71696;SDS011;59528;59.082;37.926;2022-08-21T04:41:35;18.57;;;13.30;;
71696;SDS011;59528;59.082;37.926;2022-08-21T04:44:02;22.97;;;13.40;;
71696;SDS011;59528;59.082;37.926;2022-08-21T04:46:27;17.90;;;13.03;;
71696;SDS011;59528;59.082;37.926;2022-08-21T04:48:53;21.73;;;14.80;;
71696;SDS011;59528;59.082;37.926;2022-08-21T04:51:23;21.57;;;13.43;;
71696;SDS011;59528;59.082;37.926;2022-08-21T04:53:54;23.63;;;14.73;;
71696;SDS011;59528;59.082;37.926;2022-08-21T04:56:55;29.57;;;18.40;;
71696;SDS011;59528;59.082;37.926;2022-08-21T04:59:15;22.67;;;15.93;;
71696;SDS011;59528;59.082;37.926;2022-08-21T05:01:41;20.23;;;15.17;;
71696;SDS011;59528;59.082;37.926;2022-08-21T05:04:08;24.90;;;15.13;;
71696;SDS011;59528;59.082;37.926;2022-08-21T05:06:35;22.67;;;15.70;;
71696;SDS011;59528;59.082;37.926;2022-08-21T05:09:02;23.13;;;14.47;;
71696;SDS011;59528;59.082;37.926;2022-08-21T05:11:29;20.30;;;13.90;;
71696;SDS011;59528;59.082;37.926;2022-08-21T05:13:55;18.17;;;13.60;;
71696;SDS011;59528;59.082;37.926;2022-08-21T05:16:21;21.33;;;13.60;;
71696;SDS011;59528;59.082;37.926;2022-08-21T05:18:46;20.33;;;13.80;;
71696;SDS011;59528;59.082;37.926;2022-08-21T05:21:13;16.77;;;13.00;;
71696;SDS011;59528;59.082;37.926;2022-08-21T05:23:38;18.07;;;12.83;;
71696;SDS011;59528;59.082;37.926;2022-08-21T05:26:04;22.07;;;13.00;;
71696;SDS011;59528;59.082;37.926;2022-08-21T05:28:30;18.80;;;12.37;;
71696;SDS011;59528;59.082;37.926;2022-08-21T05:30:55;20.90;;;12.80;;
71696;SDS011;59528;59.082;37.926;2022-08-21T05:33:21;18.23;;;12.83;;
71696;SDS011;59528;59.082;37.926;2022-08-21T05:35:49;16.87;;;12.03;;
71696;SDS011;59528;59.082;37.926;2022-08-21T05:38:15;16.97;;;11.87;;
71696;SDS011;59528;59.082;37.926;2022-08-21T05:40:40;18.97;;;12.40;;
71696;SDS011;59528;59.082;37.926;2022-08-21T05:43:06;17.37;;;11.73;;
71696;SDS011;59528;59.082;37.926;2022-08-21T05:45:32;17.20;;;11.63;;
71696;SDS011;59528;59.082;37.926;2022-08-21T05:48:04;17.43;;;11.43;;
71696;SDS011;59528;59.082;37.926;2022-08-21T05:50:30;15.33;;;11.47;;
71696;SDS011;59528;59.082;37.926;2022-08-21T05:52:56;18.53;;;11.70;;
71696;SDS011;59528;59.082;37.926;2022-08-21T05:55:22;17.67;;;11.43;;
71696;SDS011;59528;59.082;37.926;2022-08-21T05:57:47;14.23;;;11.20;;
71696;SDS011;59528;59.082;37.926;2022-08-21T06:00:13;16.93;;;11.53;;
71696;SDS011;59528;59.082;37.926;2022-08-21T06:02:39;18.87;;;11.30;;
71696;SDS011;59528;59.082;37.926;2022-08-21T06:05:06;16.00;;;11.27;;
71696;SDS011;59528;59.082;37.926;2022-08-21T06:07:31;17.93;;;11.47;;
71696;SDS011;59528;59.082;37.926;2022-08-21T06:09:57;18.27;;;10.80;;
71696;SDS011;59528;59.082;37.926;2022-08-21T06:12:23;14.03;;;10.30;;
71696;SDS011;59528;59.082;37.926;2022-08-21T06:14:49;14.20;;;11.30;;
71696;SDS011;59528;59.082;37.926;2022-08-21T06:17:17;16.60;;;10.40;;
71696;SDS011;59528;59.082;37.926;2022-08-21T06:19:42;15.07;;;11.63;;
71696;SDS011;59528;59.082;37.926;2022-08-21T06:22:08;17.57;;;10.80;;
71696;SDS011;59528;59.082;37.926;2022-08-21T06:24:34;16.20;;;10.93;;
71696;SDS011;59528;59.082;37.926;2022-08-21T06:27:05;17.23;;;10.77;;
71696;SDS011;59528;59.082;37.926;2022-08-21T06:29:34;15.23;;;10.33;;
71696;SDS011;59528;59.082;37.926;2022-08-21T06:32:00;12.33;;;9.63;;
71696;SDS011;59528;59.082;37.926;2022-08-21T06:34:26;12.67;;;8.70;;
71696;SDS011;59528;59.082;37.926;2022-08-21T06:36:52;15.87;;;8.63;;
71696;SDS011;59528;59.082;37.926;2022-08-21T06:39:17;14.50;;;8.40;;
71696;SDS011;59528;59.082;37.926;2022-08-21T06:41:43;14.43;;;7.93;;
71696;SDS011;59528;59.082;37.926;2022-08-21T06:44:08;11.10;;;7.57;;
71696;SDS011;59528;59.082;37.926;2022-08-21T06:46:34;9.40;;;6.90;;
71696;SDS011;59528;59.082;37.926;2022-08-21T06:49:00;8.70;;;7.00;;
71696;SDS011;59528;59.082;37.926;2022-08-21T06:51:25;8.50;;;6.63;;
71696;SDS011;59528;59.082;37.926;2022-08-21T06:53:51;11.13;;;6.90;;
71696;SDS011;59528;59.082;37.926;2022-08-21T06:56:17;11.73;;;6.97;;
71696;SDS011;59528;59.082;37.926;2022-08-21T06:58:43;10.00;;;6.33;;
71696;SDS011;59528;59.082;37.926;2022-08-21T07:01:08;12.80;;;6.43;;
71696;SDS011;59528;59.082;37.926;2022-08-21T07:03:35;8.40;;;6.17;;
71696;SDS011;59528;59.082;37.926;2022-08-21T07:06:01;10.83;;;6.00;;
71696;SDS011;59528;59.082;37.926;2022-08-21T07:08:27;8.57;;;6.20;;
71696;SDS011;59528;59.082;37.926;2022-08-21T07:10:54;7.73;;;6.10;;
71696;SDS011;59528;59.082;37.926;2022-08-21T07:13:20;12.00;;;5.90;;
71696;SDS011;59528;59.082;37.926;2022-08-21T07:15:45;11.03;;;6.43;;
71696;SDS011;59528;59.082;37.926;2022-08-21T07:18:11;9.40;;;5.87;;
71696;SDS011;59528;59.082;37.926;2022-08-21T07:20:38;7.17;;;5.83;;
71696;SDS011;59528;59.082;37.926;2022-08-21T07:23:17;9.20;;;6.47;;
71696;SDS011;59528;59.082;37.926;2022-08-21T07:26:20;8.33;;;5.40;;
71696;SDS011;59528;59.082;37.926;2022-08-21T07:28:46;12.57;;;6.13;;
71696;SDS011;59528;59.082;37.926;2022-08-21T07:31:13;14.70;;;6.10;;
71696;SDS011;59528;59.082;37.926;2022-08-21T07:33:39;9.03;;;5.50;;
71696;SDS011;59528;59.082;37.926;2022-08-21T07:36:05;10.83;;;6.43;;
71696;SDS011;59528;59.082;37.926;2022-08-21T07:38:30;12.00;;;5.70;;
71696;SDS011;59528;59.082;37.926;2022-08-21T07:40:56;12.33;;;5.70;;
71696;SDS011;59528;59.082;37.926;2022-08-21T07:43:24;8.63;;;5.50;;
71696;SDS011;59528;59.082;37.926;2022-08-21T07:45:50;7.60;;;5.73;;
71696;SDS011;59528;59.082;37.926;2022-08-21T07:48:16;9.17;;;5.70;;
71696;SDS011;59528;59.082;37.926;2022-08-21T07:50:42;10.33;;;5.13;;
71696;SDS011;59528;59.082;37.926;2022-08-21T07:53:07;7.13;;;5.13;;
71696;SDS011;59528;59.082;37.926;2022-08-21T07:55:33;11.30;;;5.20;;
71696;SDS011;59528;59.082;37.926;2022-08-21T07:57:59;8.73;;;5.20;;
71696;SDS011;59528;59.082;37.926;2022-08-21T08:00:25;14.77;;;5.87;;
71696;SDS011;59528;59.082;37.926;2022-08-21T08:02:51;11.50;;;5.20;;
71696;SDS011;59528;59.082;37.926;2022-08-21T08:05:19;10.47;;;5.23;;
71696;SDS011;59528;59.082;37.926;2022-08-21T08:07:45;13.17;;;4.70;;
71696;SDS011;59528;59.082;37.926;2022-08-21T08:10:11;6.60;;;4.63;;
71696;SDS011;59528;59.082;37.926;2022-08-21T08:12:37;9.23;;;5.13;;
71696;SDS011;59528;59.082;37.926;2022-08-21T08:15:07;14.10;;;4.63;;
71696;SDS011;59528;59.082;37.926;2022-08-21T08:18:40;7.43;;;4.00;;
71696;SDS011;59528;59.082;37.926;2022-08-21T08:21:07;9.33;;;4.60;;
71696;SDS011;59528;59.082;37.926;2022-08-21T08:23:33;11.27;;;4.50;;
71696;SDS011;59528;59.082;37.926;2022-08-21T08:26:01;7.63;;;4.80;;
71696;SDS011;59528;59.082;37.926;2022-08-21T08:29:20;9.47;;;4.03;;
71696;SDS011;59528;59.082;37.926;2022-08-21T08:31:46;9.73;;;4.50;;
71696;SDS011;59528;59.082;37.926;2022-08-21T08:34:12;8.03;;;4.20;;
71696;SDS011;59528;59.082;37.926;2022-08-21T08:36:37;7.97;;;4.40;;
71696;SDS011;59528;59.082;37.926;2022-08-21T08:39:03;8.37;;;4.40;;
71696;SDS011;59528;59.082;37.926;2022-08-21T08:41:29;9.40;;;4.87;;
71696;SDS011;59528;59.082;37.926;2022-08-21T08:44:00;7.43;;;4.33;;
71696;SDS011;59528;59.082;37.926;2022-08-21T08:49:00;13.17;;;4.80;;
71696;SDS011;59528;59.082;37.926;2022-08-21T08:51:32;13.97;;;5.07;;
71696;SDS011;59528;59.082;37.926;2022-08-21T08:54:01;8.87;;;4.53;;
71696;SDS011;59528;59.082;37.926;2022-08-21T08:56:31;7.50;;;5.03;;
71696;SDS011;59528;59.082;37.926;2022-08-21T08:59:00;11.37;;;5.57;;
71696;SDS011;59528;59.082;37.926;2022-08-21T09:01:26;8.87;;;5.40;;
71696;SDS011;59528;59.082;37.926;2022-08-21T09:03:52;12.03;;;6.43;;
71696;SDS011;59528;59.082;37.926;2022-08-21T09:09:11;8.70;;;5.47;;
71696;SDS011;59528;59.082;37.926;2022-08-21T09:11:42;8.73;;;5.67;;
71696;SDS011;59528;59.082;37.926;2022-08-21T09:14:36;10.30;;;5.50;;
71696;SDS011;59528;59.082;37.926;2022-08-21T09:27:13;11.30;;;6.20;;
71696;SDS011;59528;59.082;37.926;2022-08-21T09:29:43;7.60;;;5.27;;
71696;SDS011;59528;59.082;37.926;2022-08-21T09:32:19;7.20;;;5.30;;
71696;SDS011;59528;59.082;37.926;2022-08-21T09:34:58;9.90;;;5.20;;
71696;SDS011;59528;59.082;37.926;2022-08-21T09:37:25;8.03;;;4.77;;
71696;SDS011;59528;59.082;37.926;2022-08-21T09:39:51;11.73;;;5.40;;
71696;SDS011;59528;59.082;37.926;2022-08-21T09:42:31;9.13;;;5.23;;
71696;SDS011;59528;59.082;37.926;2022-08-21T09:45:07;11.73;;;4.90;;
71696;SDS011;59528;59.082;37.926;2022-08-21T09:47:34;15.93;;;5.43;;
71696;SDS011;59528;59.082;37.926;2022-08-21T09:50:16;13.77;;;6.30;;
71696;SDS011;59528;59.082;37.926;2022-08-21T09:52:45;11.57;;;5.50;;
71696;SDS011;59528;59.082;37.926;2022-08-21T09:55:16;13.83;;;5.30;;
71696;SDS011;59528;59.082;37.926;2022-08-21T09:58:02;8.20;;;5.13;;
71696;SDS011;59528;59.082;37.926;2022-08-21T10:00:29;7.53;;;4.60;;
71696;SDS011;59528;59.082;37.926;2022-08-21T10:05:36;8.60;;;4.50;;
71696;SDS011;59528;59.082;37.926;2022-08-21T10:08:03;8.20;;;4.40;;
71696;SDS011;59528;59.082;37.926;2022-08-21T10:10:30;10.43;;;4.40;;
71696;SDS011;59528;59.082;37.926;2022-08-21T10:15:24;8.48;;;4.22;;
71696;SDS011;59528;59.082;37.926;2022-08-21T10:20:20;6.43;;;3.90;;
71696;SDS011;59528;59.082;37.926;2022-08-21T10:22:52;7.78;;;3.92;;
71696;SDS011;59528;59.082;37.926;2022-08-21T10:25:40;6.93;;;3.72;;
71696;SDS011;59528;59.082;37.926;2022-08-21T10:28:11;6.55;;;3.63;;
71696;SDS011;59528;59.082;37.926;2022-08-21T10:38:37;6.97;;;4.10;;
71696;SDS011;59528;59.082;37.926;2022-08-21T10:42:06;13.65;;;4.03;;
71696;SDS011;59528;59.082;37.926;2022-08-21T10:46:52;7.43;;;3.88;;
71696;SDS011;59528;59.082;37.926;2022-08-21T10:49:38;9.75;;;4.22;;
71696;SDS011;59528;59.082;37.926;2022-08-21T10:57:51;7.95;;;4.10;;
71696;SDS011;59528;59.082;37.926;2022-08-21T11:00:20;7.72;;;3.90;;
71696;SDS011;59528;59.082;37.926;2022-08-21T11:02:52;7.45;;;3.55;;
71696;SDS011;59528;59.082;37.926;2022-08-21T11:05:21;5.18;;;3.10;;
71696;SDS011;59528;59.082;37.926;2022-08-21T11:10:25;7.10;;;3.40;;
71696;SDS011;59528;59.082;37.926;2022-08-21T11:12:57;6.13;;;3.50;;
71696;SDS011;59528;59.082;37.926;2022-08-21T11:18:16;7.30;;;3.67;;
71696;SDS011;59528;59.082;37.926;2022-08-21T11:20:44;7.63;;;3.55;;
71696;SDS011;59528;59.082;37.926;2022-08-21T11:23:20;14.07;;;3.97;;
71696;SDS011;59528;59.082;37.926;2022-08-21T11:25:49;7.25;;;3.30;;
71696;SDS011;59528;59.082;37.926;2022-08-21T11:28:25;6.43;;;3.80;;
71696;SDS011;59528;59.082;37.926;2022-08-21T11:30:56;5.53;;;4.03;;
71696;SDS011;59528;59.082;37.926;2022-08-21T11:33:31;8.30;;;3.83;;
71696;SDS011;59528;59.082;37.926;2022-08-21T11:36:08;11.80;;;4.10;;
71696;SDS011;59528;59.082;37.926;2022-08-21T11:38:42;7.60;;;3.95;;
71696;SDS011;59528;59.082;37.926;2022-08-21T11:43:42;6.72;;;4.40;;
71696;SDS011;59528;59.082;37.926;2022-08-21T11:51:35;8.60;;;4.60;;
71696;SDS011;59528;59.082;37.926;2022-08-21T11:56:30;8.07;;;4.88;;
71696;SDS011;59528;59.082;37.926;2022-08-21T11:58:59;9.68;;;4.50;;
71696;SDS011;59528;59.082;37.926;2022-08-21T12:01:27;7.95;;;4.68;;
71696;SDS011;59528;59.082;37.926;2022-08-21T12:03:59;7.68;;;4.68;;
71696;SDS011;59528;59.082;37.926;2022-08-21T12:06:35;7.47;;;4.90;;
71696;SDS011;59528;59.082;37.926;2022-08-21T12:09:07;13.05;;;5.35;;
71696;SDS011;59528;59.082;37.926;2022-08-21T12:11:49;18.85;;;6.68;;
71696;SDS011;59528;59.082;37.926;2022-08-21T12:14:16;11.93;;;5.05;;
71696;SDS011;59528;59.082;37.926;2022-08-21T12:16:43;9.20;;;5.57;;
71696;SDS011;59528;59.082;37.926;2022-08-21T12:19:13;16.98;;;11.13;;
71696;SDS011;59528;59.082;37.926;2022-08-21T12:24:32;6.95;;;4.82;;
71696;SDS011;59528;59.082;37.926;2022-08-21T12:27:01;7.97;;;5.40;;
71696;SDS011;59528;59.082;37.926;2022-08-21T12:29:37;8.43;;;5.38;;
71696;SDS011;59528;59.082;37.926;2022-08-21T12:32:29;10.00;;;5.43;;
71696;SDS011;59528;59.082;37.926;2022-08-21T12:37:38;9.98;;;6.43;;
71696;SDS011;59528;59.082;37.926;2022-08-21T12:40:19;8.73;;;5.47;;
71696;SDS011;59528;59.082;37.926;2022-08-21T12:42:47;8.65;;;4.72;;
71696;SDS011;59528;59.082;37.926;2022-08-21T12:45:17;7.72;;;5.10;;
71696;SDS011;59528;59.082;37.926;2022-08-21T12:47:48;10.85;;;5.15;;
71696;SDS011;59528;59.082;37.926;2022-08-21T12:55:47;9.68;;;4.70;;
71696;SDS011;59528;59.082;37.926;2022-08-21T12:58:19;10.07;;;4.90;;
71696;SDS011;59528;59.082;37.926;2022-08-21T13:03:36;7.55;;;4.85;;
71696;SDS011;59528;59.082;37.926;2022-08-21T13:06:03;7.35;;;4.53;;
71696;SDS011;59528;59.082;37.926;2022-08-21T13:08:30;7.75;;;5.20;;
71696;SDS011;59528;59.082;37.926;2022-08-21T13:11:10;7.50;;;4.63;;
71696;SDS011;59528;59.082;37.926;2022-08-21T13:13:36;8.95;;;4.88;;
71696;SDS011;59528;59.082;37.926;2022-08-21T13:16:03;9.57;;;4.85;;
71696;SDS011;59528;59.082;37.926;2022-08-21T13:18:30;13.38;;;10.60;;
71696;SDS011;59528;59.082;37.926;2022-08-21T13:21:10;10.85;;;8.57;;
71696;SDS011;59528;59.082;37.926;2022-08-21T13:23:36;16.63;;;5.70;;
71696;SDS011;59528;59.082;37.926;2022-08-21T13:26:11;11.52;;;5.93;;
71696;SDS011;59528;59.082;37.926;2022-08-21T13:28:37;8.00;;;5.03;;
71696;SDS011;59528;59.082;37.926;2022-08-21T13:31:05;9.07;;;5.05;;
71696;SDS011;59528;59.082;37.926;2022-08-21T13:33:31;7.22;;;5.05;;
71696;SDS011;59528;59.082;37.926;2022-08-21T13:38:27;9.18;;;5.05;;
71696;SDS011;59528;59.082;37.926;2022-08-21T13:43:31;5.95;;;4.20;;
71696;SDS011;59528;59.082;37.926;2022-08-21T13:45:56;9.20;;;4.90;;
71696;SDS011;59528;59.082;37.926;2022-08-21T13:48:24;8.20;;;5.20;;
71696;SDS011;59528;59.082;37.926;2022-08-21T13:50:54;10.70;;;5.03;;
71696;SDS011;59528;59.082;37.926;2022-08-21T13:55:49;7.85;;;4.65;;
71696;SDS011;59528;59.082;37.926;2022-08-21T13:58:23;6.63;;;4.70;;
71696;SDS011;59528;59.082;37.926;2022-08-21T14:00:50;6.35;;;4.78;;
71696;SDS011;59528;59.082;37.926;2022-08-21T14:03:26;8.35;;;4.88;;
71696;SDS011;59528;59.082;37.926;2022-08-21T14:05:53;5.70;;;5.00;;
71696;SDS011;59528;59.082;37.926;2022-08-21T14:08:39;7.22;;;5.00;;
71696;SDS011;59528;59.082;37.926;2022-08-21T14:11:10;7.97;;;4.90;;
71696;SDS011;59528;59.082;37.926;2022-08-21T14:16:03;9.88;;;4.82;;
71696;SDS011;59528;59.082;37.926;2022-08-21T14:18:42;8.57;;;5.03;;
71696;SDS011;59528;59.082;37.926;2022-08-21T14:21:08;10.40;;;4.90;;
71696;SDS011;59528;59.082;37.926;2022-08-21T14:23:34;9.93;;;4.97;;
71696;SDS011;59528;59.082;37.926;2022-08-21T14:26:02;11.45;;;5.10;;
71696;SDS011;59528;59.082;37.926;2022-08-21T14:28:38;8.75;;;4.65;;
71696;SDS011;59528;59.082;37.926;2022-08-21T14:31:14;8.52;;;5.40;;
71696;SDS011;59528;59.082;37.926;2022-08-21T14:33:41;11.80;;;5.07;;
71696;SDS011;59528;59.082;37.926;2022-08-21T14:36:07;7.50;;;4.97;;
71696;SDS011;59528;59.082;37.926;2022-08-21T14:38:34;7.25;;;4.72;;
71696;SDS011;59528;59.082;37.926;2022-08-21T14:41:06;28.48;;;23.35;;
71696;SDS011;59528;59.082;37.926;2022-08-21T14:43:33;14.20;;;8.73;;
71696;SDS011;59528;59.082;37.926;2022-08-21T14:45:59;9.35;;;4.85;;
71696;SDS011;59528;59.082;37.926;2022-08-21T14:48:26;7.85;;;5.20;;
71696;SDS011;59528;59.082;37.926;2022-08-21T14:50:52;11.73;;;6.32;;
71696;SDS011;59528;59.082;37.926;2022-08-21T14:53:17;8.05;;;5.65;;
71696;SDS011;59528;59.082;37.926;2022-08-21T14:55:43;10.38;;;5.18;;
71696;SDS011;59528;59.082;37.926;2022-08-21T14:58:27;7.78;;;5.10;;
71696;SDS011;59528;59.082;37.926;2022-08-21T15:00:53;8.75;;;5.25;;
71696;SDS011;59528;59.082;37.926;2022-08-21T15:03:19;9.32;;;4.65;;
71696;SDS011;59528;59.082;37.926;2022-08-21T15:05:47;9.30;;;4.78;;
71696;SDS011;59528;59.082;37.926;2022-08-21T15:08:12;10.27;;;4.38;;
71696;SDS011;59528;59.082;37.926;2022-08-21T15:10:38;7.57;;;5.28;;
71696;SDS011;59528;59.082;37.926;2022-08-21T15:13:04;9.43;;;4.97;;
71696;SDS011;59528;59.082;37.926;2022-08-21T15:15:31;7.60;;;4.68;;
71696;SDS011;59528;59.082;37.926;2022-08-21T15:17:58;8.63;;;5.07;;
71696;SDS011;59528;59.082;37.926;2022-08-21T15:20:27;5.88;;;4.57;;
71696;SDS011;59528;59.082;37.926;2022-08-21T15:22:52;8.02;;;4.93;;
71696;SDS011;59528;59.082;37.926;2022-08-21T15:25:18;11.60;;;5.50;;
71696;SDS011;59528;59.082;37.926;2022-08-21T15:27:44;11.25;;;4.88;;
71696;SDS011;59528;59.082;37.926;2022-08-21T15:30:09;8.35;;;5.22;;
71696;SDS011;59528;59.082;37.926;2022-08-21T15:32:35;7.43;;;5.00;;
71696;SDS011;59528;59.082;37.926;2022-08-21T15:35:01;6.75;;;4.78;;
71696;SDS011;59528;59.082;37.926;2022-08-21T15:37:28;7.07;;;4.93;;
71696;SDS011;59528;59.082;37.926;2022-08-21T15:39:54;13.45;;;7.00;;
71696;SDS011;59528;59.082;37.926;2022-08-21T15:42:20;9.82;;;6.25;;
71696;SDS011;59528;59.082;37.926;2022-08-21T15:44:46;9.88;;;5.20;;
71696;SDS011;59528;59.082;37.926;2022-08-21T15:47:17;6.75;;;4.90;;
71696;SDS011;59528;59.082;37.926;2022-08-21T15:49:45;14.98;;;11.20;;